createdAt,value
2023-01-13T00:04:22.193Z,8.41
2023-01-13T00:09:24.284Z,8.68
2023-01-13T00:14:27.302Z,8.60
2023-01-13T00:19:29.670Z,8.56
2023-01-13T00:24:31.782Z,8.55
2023-01-13T00:29:33.893Z,8.70
2023-01-13T00:34:36.094Z,8.47
2023-01-13T00:39:38.162Z,8.59
2023-01-13T00:44:40.203Z,8.59
2023-01-13T00:49:42.256Z,8.56
2023-01-13T00:54:44.315Z,8.39
2023-01-13T00:59:47.999Z,8.51
2023-01-13T01:04:51.547Z,8.47
2023-01-13T01:09:53.774Z,8.14
2023-01-13T01:14:55.952Z,8.24
2023-01-13T01:19:58.062Z,8.10
2023-01-13T01:25:00.198Z,7.90
2023-01-13T01:30:02.244Z,8.07
2023-01-13T01:35:05.175Z,8.19
2023-01-13T01:40:07.609Z,8.10
2023-01-13T01:45:21.688Z,8.31
2023-01-13T01:50:24.408Z,8.23
2023-01-13T01:55:31.151Z,8.00
2023-01-13T02:00:33.439Z,8.16
2023-01-13T02:05:35.982Z,7.95
2023-01-13T02:10:40.077Z,7.75
2023-01-13T02:16:05.361Z,7.83
2023-01-13T02:21:54.521Z,7.82
2023-01-13T02:27:14.769Z,7.87
2023-01-13T02:32:30.065Z,7.91
2023-01-13T02:37:36.455Z,7.85
2023-01-13T02:43:04.738Z,7.78
2023-01-13T02:48:09.459Z,7.76
2023-01-13T02:53:18.571Z,7.54
2023-01-13T02:58:25.339Z,7.74
2023-01-13T03:03:27.425Z,7.72
2023-01-13T03:09:15.135Z,7.57
2023-01-13T03:14:51.052Z,7.48
2023-01-13T03:20:04.385Z,7.22
2023-01-13T03:25:23.100Z,7.27
2023-01-13T03:30:45.106Z,7.34
2023-01-13T03:35:52.576Z,7.29
2023-01-13T03:40:59.548Z,7.27
2023-01-13T03:46:09.203Z,7.05
2023-01-13T03:51:18.402Z,7.19
2023-01-13T03:56:27.155Z,7.19
2023-01-13T04:01:42.412Z,7.35
2023-01-13T04:06:47.041Z,7.32
2023-01-13T04:12:09.784Z,7.14
2023-01-13T04:17:12.289Z,6.92
2023-01-13T04:22:14.409Z,6.87
2023-01-13T04:27:16.460Z,6.84
2023-01-13T04:32:18.866Z,6.79
2023-01-13T04:37:20.999Z,6.37
2023-01-13T04:42:23.041Z,6.18
2023-01-13T04:47:25.188Z,6.31
2023-01-13T04:52:27.325Z,6.40
2023-01-13T04:57:30.023Z,6.56
2023-01-13T05:02:32.245Z,6.56
2023-01-13T05:07:34.472Z,6.58
2023-01-13T05:12:55.009Z,6.32
2023-01-13T05:17:57.582Z,6.64
2023-01-13T05:23:18.181Z,6.72
2023-01-13T05:28:20.409Z,6.81
2023-01-13T05:33:22.567Z,6.61
2023-01-13T05:38:24.659Z,6.80
2023-01-13T05:43:27.912Z,6.98
2023-01-13T05:48:34.063Z,6.98
2023-01-13T05:53:36.847Z,7.02
2023-01-13T05:58:39.372Z,7.00
2023-01-13T06:03:41.585Z,6.96
2023-01-13T06:08:43.729Z,7.17
2023-01-13T06:13:45.933Z,7.06
2023-01-13T06:18:48.148Z,6.88
2023-01-13T06:23:50.257Z,6.64
2023-01-13T06:28:52.478Z,6.88
2023-01-13T06:34:05.826Z,7.03
2023-01-13T06:39:09.834Z,7.45
2023-01-13T06:44:12.233Z,7.46
2023-01-13T06:49:14.479Z,7.58
2023-01-13T06:54:16.712Z,7.81
2023-01-13T06:59:18.931Z,7.36
2023-01-13T07:04:21.106Z,7.58
2023-01-13T07:09:23.374Z,8.00
2023-01-13T07:14:45.016Z,8.17
2023-01-13T07:19:47.218Z,8.32
2023-01-13T07:24:49.518Z,8.37
2023-01-13T07:29:51.610Z,8.31
2023-01-13T07:34:53.768Z,8.67
2023-01-13T07:39:55.903Z,8.71
2023-01-13T07:44:58.070Z,8.92
2023-01-13T07:50:00.224Z,8.87
2023-01-13T07:55:02.450Z,9.28
2023-01-13T08:00:05.998Z,8.93
2023-01-13T08:05:09.040Z,8.64
2023-01-13T08:10:11.619Z,8.88
2023-01-13T08:15:16.432Z,9.08
2023-01-13T08:20:19.522Z,9.45
2023-01-13T08:25:27.216Z,9.51
2023-01-13T08:30:30.032Z,9.60
2023-01-13T08:35:32.253Z,9.77
2023-01-13T08:40:34.593Z,9.85
2023-01-13T08:45:36.972Z,10.06
2023-01-13T08:50:39.160Z,9.85
2023-01-13T08:55:41.486Z,10.00
2023-01-13T09:00:45.093Z,10.05
2023-01-13T09:05:47.637Z,10.35
2023-01-13T09:10:49.889Z,10.53
2023-01-13T09:15:56.239Z,11.09
2023-01-13T09:20:59.516Z,11.03
2023-01-13T09:26:01.900Z,10.80
2023-01-13T09:31:04.344Z,10.70
2023-01-13T09:36:08.022Z,11.15
2023-01-13T09:41:45.844Z,11.36
2023-01-13T09:46:53.744Z,11.71
2023-01-13T09:52:02.840Z,11.94
2023-01-13T09:57:13.234Z,12.13
2023-01-13T10:02:22.235Z,12.16
2023-01-13T10:07:24.654Z,12.39
2023-01-13T10:12:45.833Z,12.42
2023-01-13T10:18:18.980Z,12.25
2023-01-13T10:23:38.209Z,12.31
2023-01-13T10:28:40.414Z,12.35
2023-01-13T10:33:42.706Z,12.15
2023-01-13T10:38:50.447Z,12.52
2023-01-13T10:43:52.469Z,12.73
2023-01-13T10:48:56.601Z,12.72
2023-01-13T10:54:14.528Z,12.67
2023-01-13T10:59:27.519Z,12.78
2023-01-13T11:04:38.761Z,12.98
2023-01-13T11:09:41.640Z,13.01
2023-01-13T11:14:45.769Z,12.78
2023-01-13T11:20:05.455Z,13.09
2023-01-13T11:25:15.870Z,13.09
2023-01-13T11:30:44.443Z,13.37
2023-01-13T11:36:17.801Z,13.70
2023-01-13T11:41:47.650Z,14.00
2023-01-13T11:46:55.153Z,14.20
2023-01-13T11:52:16.231Z,14.16
2023-01-13T11:57:35.691Z,14.16
2023-01-13T12:03:05.244Z,14.31
2023-01-13T12:08:46.360Z,14.06
2023-01-13T12:13:48.394Z,14.12
2023-01-13T12:19:19.079Z,14.21
2023-01-13T12:24:41.743Z,14.64
2023-01-13T12:29:46.771Z,14.61
2023-01-13T12:35:23.780Z,14.87
2023-01-13T12:40:49.177Z,14.83
2023-01-13T12:45:52.585Z,14.81
2023-01-13T12:51:01.305Z,15.02
2023-01-13T12:56:25.148Z,14.84
2023-01-13T13:01:36.648Z,14.80
2023-01-13T13:06:44.117Z,14.86
2023-01-13T13:12:03.995Z,14.80
2023-01-13T13:17:29.637Z,14.93
2023-01-13T13:22:45.157Z,14.66
2023-01-13T13:28:21.025Z,14.95
2023-01-13T13:33:48.307Z,15.18
2023-01-13T13:39:17.372Z,15.69
2023-01-13T13:44:40.885Z,15.41
2023-01-13T13:49:54.907Z,15.51
2023-01-13T13:55:05.466Z,15.18
2023-01-13T14:00:18.412Z,15.58
2023-01-13T14:05:29.513Z,15.85
2023-01-13T14:11:03.368Z,16.14
2023-01-13T14:16:15.810Z,15.79
2023-01-13T14:21:25.896Z,15.97
2023-01-13T14:26:31.322Z,16.02
2023-01-13T14:31:41.385Z,16.55
2023-01-13T14:36:43.881Z,16.89
2023-01-13T14:41:48.687Z,17.37
2023-01-13T14:46:52.013Z,17.58
2023-01-13T14:51:54.845Z,17.78
2023-01-13T14:57:23.609Z,18.17
2023-01-13T15:02:26.089Z,17.95
2023-01-13T15:07:32.662Z,17.31
2023-01-13T15:12:40.290Z,16.41
2023-01-13T15:17:42.898Z,16.11
2023-01-13T15:22:45.543Z,15.61
2023-01-13T15:27:52.757Z,15.20
2023-01-13T15:32:58.761Z,15.02
2023-01-13T15:38:02.615Z,14.69
2023-01-13T15:43:23.513Z,14.75
2023-01-13T15:48:28.500Z,14.46
2023-01-13T15:53:30.752Z,14.15
2023-01-13T15:58:33.160Z,13.95
2023-01-13T16:03:35.555Z,13.92
2023-01-13T16:08:39.410Z,13.72
2023-01-13T16:13:41.591Z,13.56
2023-01-13T16:18:43.828Z,13.26
2023-01-13T16:23:46.011Z,13.19
2023-01-13T16:28:48.746Z,13.09
2023-01-13T16:33:51.658Z,13.22
2023-01-13T16:38:54.443Z,12.89
2023-01-13T16:43:56.631Z,12.68
2023-01-13T16:49:03.783Z,12.59
2023-01-13T16:54:06.266Z,11.64
2023-01-13T16:59:17.369Z,12.48
2023-01-13T17:04:22.163Z,12.24
2023-01-13T17:09:26.769Z,12.42
2023-01-13T17:14:29.010Z,12.23
2023-01-13T17:19:31.182Z,11.90
2023-01-13T17:24:35.580Z,11.82
2023-01-13T17:29:38.575Z,11.66
2023-01-13T17:34:40.764Z,11.28
2023-01-13T17:39:44.722Z,11.46
2023-01-13T17:44:48.614Z,11.29
2023-01-13T17:49:50.950Z,10.91
2023-01-13T17:54:53.373Z,11.36
2023-01-13T17:59:55.614Z,11.29
2023-01-13T18:04:57.821Z,11.24
2023-01-13T18:10:00.168Z,11.14
2023-01-13T18:15:02.445Z,11.02
2023-01-13T18:26:09.652Z,10.84
2023-01-13T18:31:12.071Z,10.85
2023-01-13T18:36:14.515Z,10.78
2023-01-13T18:41:36.111Z,10.80
2023-01-13T18:46:38.862Z,10.74
2023-01-13T18:51:41.365Z,10.90
2023-01-13T18:56:44.390Z,10.78
2023-01-13T19:01:46.697Z,10.74
2023-01-13T19:06:51.884Z,10.76
2023-01-13T19:11:54.079Z,10.67
2023-01-13T19:16:56.331Z,10.58
2023-01-13T19:21:58.792Z,10.55
2023-01-13T19:27:01.113Z,10.43
2023-01-13T19:32:03.564Z,10.15
2023-01-13T19:37:07.151Z,9.89
2023-01-13T19:42:30.817Z,9.89
2023-01-13T19:47:34.385Z,9.95
2023-01-13T19:52:36.857Z,9.85
2023-01-13T19:57:40.769Z,9.89
2023-01-13T20:02:49.723Z,9.77
2023-01-13T20:13:18.602Z,9.59
2023-01-13T20:18:21.113Z,9.49
2023-01-13T20:23:26.260Z,9.40
2023-01-13T20:28:28.685Z,8.98
2023-01-13T20:33:30.969Z,8.83
2023-01-13T20:38:38.986Z,8.87
2023-01-13T20:43:41.248Z,9.15
2023-01-13T20:48:43.473Z,9.03
2023-01-13T20:53:45.749Z,8.99
2023-01-13T20:58:47.946Z,8.74
2023-01-13T21:03:50.639Z,8.74
2023-01-13T21:08:54.673Z,8.45
2023-01-13T21:14:16.362Z,8.36
2023-01-13T21:19:18.606Z,8.59
2023-01-13T21:24:21.198Z,8.71
2023-01-13T21:29:23.569Z,8.49
2023-01-13T21:34:25.891Z,8.77
2023-01-13T21:39:28.990Z,8.72
2023-01-13T21:44:49.913Z,8.54
2023-01-13T21:49:52.220Z,8.23
2023-01-13T21:55:13.026Z,8.49
2023-01-13T22:00:15.912Z,8.10
2023-01-13T22:05:20.744Z,8.28
2023-01-13T22:10:25.958Z,8.49
2023-01-13T22:15:29.952Z,8.55
2023-01-13T22:20:32.174Z,8.37
2023-01-13T22:25:34.398Z,8.26
2023-01-13T22:30:36.835Z,7.97
2023-01-13T22:35:38.978Z,8.24
2023-01-13T22:40:41.141Z,8.04
2023-01-13T22:45:43.328Z,7.67
2023-01-13T22:50:45.930Z,8.17
2023-01-13T22:55:58.629Z,7.99
2023-01-13T23:01:17.695Z,7.93
2023-01-13T23:06:21.076Z,7.87
2023-01-13T23:11:25.603Z,7.90
2023-01-13T23:16:30.154Z,7.92
2023-01-13T23:21:36.334Z,7.69
2023-01-13T23:26:38.559Z,7.53
2023-01-13T23:31:41.394Z,7.63
2023-01-13T23:36:43.964Z,7.38
2023-01-13T23:41:46.144Z,7.70
2023-01-13T23:46:48.412Z,7.75
2023-01-13T23:51:51.894Z,7.54
2023-01-13T23:56:56.193Z,6.91
